Airport View

Enter AWOS ICAO identifier for current METAR.

ex. KFNL

KDXR 202153Z 00000KT 10SM CLR 18/16 A3023 RMK AO2 SLP236 T01780156

20 Oct 2020 22:50

Frequency: 127.75

Phone: 203-791-8227

Other Area AWOS: KOXC - KBDR - KHPN - KPOU

TAF AMD KBDR 201934Z 2020/2118 15005KT P6SM SCT015 BKN020 FM202200 VRB03KT 4SM BR OVC010 FM210000 VRB02KT 3SM BR BKN006 OVC010 FM210600 VRB02KT 1SM BR OVC004 FM211500 18005KT 5SM BR OVC015